Time;durP1;ratioP1;P1;durP2;ratioP2;P2;SDS_P1;SDS_P2;PMS_P1;PMS_P2;Temp;Humidity;BMP_temperature;BMP_pressure;BME280_temperature;BME280_humidity;BME280_pressure;Samples;Min_cycle;Max_cycle;Signal;HPM_P1;HPM_P2
2024/01/15 00:01:45;;;;;;;38.30;13.05;;;;;;;;;;5047490;28;20051;-74
2024/01/15 00:04:10;;;;;;;46.65;14.98;;;;;;;;;;5028914;28;20048;-74
2024/01/15 00:06:36;;;;;;;43.53;13.57;;;;;;;;;;5030767;28;20033;-74
2024/01/15 00:09:01;;;;;;;34.78;12.93;;;;;;;;;;5011954;28;20048;-74
2024/01/15 00:11:27;;;;;;;39.45;13.73;;;;;;;;;;5012176;28;20037;-74
2024/01/15 00:13:52;;;;;;;38.53;12.38;;;;;;;;;;5030000;28;20052;-74
2024/01/15 00:16:18;;;;;;;32.95;10.35;;;;;;;;;;5029263;28;20100;-74
2024/01/15 00:18:43;;;;;;;39.88;13.32;;;;;;;;;;5029798;28;20026;-73
2024/01/15 00:21:08;;;;;;;37.50;13.52;;;;;;;;;;5024510;28;20533;-74
2024/01/15 00:23:34;;;;;;;32.03;12.07;;;;;;;;;;5024089;28;20057;-74
2024/01/15 00:26:00;;;;;;;39.45;12.30;;;;;;;;;;5001077;28;20053;-73
2024/01/15 00:28:25;;;;;;;39.03;12.57;;;;;;;;;;5029624;28;20041;-73
2024/01/15 00:30:51;;;;;;;32.97;12.35;;;;;;;;;;5028463;28;20488;-74
2024/01/15 00:33:16;;;;;;;35.00;13.40;;;;;;;;;;5030370;28;20033;-73
2024/01/15 00:35:42;;;;;;;35.70;11.82;;;;;;;;;;5047959;28;20024;-74
2024/01/15 00:38:07;;;;;;;30.45;11.23;;;;;;;;;;5039999;28;20029;-74
2024/01/15 00:40:33;;;;;;;36.88;11.52;;;;;;;;;;5048478;28;20101;-74
2024/01/15 00:42:58;;;;;;;26.95;10.93;;;;;;;;;;5029923;28;20079;-74
2024/01/15 00:45:24;;;;;;;30.38;11.20;;;;;;;;;;5047984;28;20044;-74
2024/01/15 00:47:49;;;;;;;33.83;11.93;;;;;;;;;;5030324;28;20033;-74
2024/01/15 00:50:15;;;;;;;34.13;12.65;;;;;;;;;;5037234;28;20033;-74
2024/01/15 00:52:40;;;;;;;35.00;11.05;;;;;;;;;;5000486;28;20056;-74
2024/01/15 00:55:06;;;;;;;38.80;12.77;;;;;;;;;;5011796;28;20585;-74
2024/01/15 00:57:32;;;;;;;34.33;11.73;;;;;;;;;;5028703;28;20029;-74
2024/01/15 00:59:58;;;;;;;31.02;11.02;;;;;;;;;;5011193;28;20751;-74
2024/01/15 01:02:23;;;;;;;27.30;10.05;;;;;;;;;;5030488;28;20041;-74
2024/01/15 01:04:49;;;;;;;30.10;11.75;;;;;;;;;;5029289;28;20036;-74
2024/01/15 01:07:14;;;;;;;41.50;12.70;;;;;;;;;;5029278;28;20192;-73
2024/01/15 01:09:39;;;;;;;43.90;13.77;;;;;;;;;;5011430;28;20045;-74
2024/01/15 01:12:05;;;;;;;41.35;13.18;;;;;;;;;;5029680;28;20033;-73
2024/01/15 01:14:31;;;;;;;35.03;12.15;;;;;;;;;;5029549;28;20544;-73
2024/01/15 01:16:57;;;;;;;43.65;14.95;;;;;;;;;;5028725;28;20037;-73
2024/01/15 01:19:22;;;;;;;28.23;10.85;;;;;;;;;;5029518;28;20414;-74
2024/01/15 01:21:48;;;;;;;35.88;13.52;;;;;;;;;;5024875;28;20053;-73
2024/01/15 01:24:13;;;;;;;32.47;12.45;;;;;;;;;;5012916;28;20037;-74
2024/01/15 01:26:38;;;;;;;34.60;12.43;;;;;;;;;;5029761;28;20037;-74
2024/01/15 01:29:04;;;;;;;31.58;12.23;;;;;;;;;;5028608;28;20165;-73
2024/01/15 01:31:29;;;;;;;39.33;13.15;;;;;;;;;;5028789;28;20041;-74
2024/01/15 01:33:55;;;;;;;36.28;13.15;;;;;;;;;;5028552;28;20511;-74
2024/01/15 01:36:20;;;;;;;35.35;13.55;;;;;;;;;;5028908;28;20049;-74
2024/01/15 01:38:45;;;;;;;37.00;13.38;;;;;;;;;;5010857;28;20025;-74
2024/01/15 01:41:11;;;;;;;36.28;12.85;;;;;;;;;;5028879;28;20028;-74
2024/01/15 01:43:36;;;;;;;39.60;13.75;;;;;;;;;;5010905;28;20053;-74
2024/01/15 01:46:03;;;;;;;33.72;11.82;;;;;;;;;;5028334;28;20052;-73
2024/01/15 01:48:29;;;;;;;43.40;15.07;;;;;;;;;;5010998;28;20527;-73
2024/01/15 01:50:58;;;;;;;36.58;12.50;;;;;;;;;;5012286;28;20409;-73
2024/01/15 01:53:25;;;;;;;40.45;14.30;;;;;;;;;;5018998;28;20033;-74
2024/01/15 01:55:51;;;;;;;44.90;15.93;;;;;;;;;;5015876;28;20099;-74
2024/01/15 01:58:17;;;;;;;31.55;12.15;;;;;;;;;;5005752;28;20037;-74
2024/01/15 02:00:43;;;;;;;28.92;9.88;;;;;;;;;;5007726;28;20601;-74
2024/01/15 02:03:08;;;;;;;39.00;12.80;;;;;;;;;;4990465;28;20057;-74
2024/01/15 02:05:36;;;;;;;36.50;13.10;;;;;;;;;;5008598;28;20109;-74
2024/01/15 02:08:01;;;;;;;43.50;14.32;;;;;;;;;;5008656;28;20096;-74
2024/01/15 02:10:26;;;;;;;41.15;14.43;;;;;;;;;;4990554;28;20046;-74
2024/01/15 02:12:52;;;;;;;39.80;13.65;;;;;;;;;;5008460;28;20041;-74
2024/01/15 02:15:17;;;;;;;43.20;14.75;;;;;;;;;;5008229;28;20268;-74
2024/01/15 02:18:03;;;;;;;30.83;9.82;;;;;;;;;;5008140;28;20025;-74
2024/01/15 02:20:29;;;;;;;40.55;13.68;;;;;;;;;;4992944;28;20595;-74
2024/01/15 02:23:03;;;;;;;37.15;11.95;;;;;;;;;;5015589;28;20034;-74
2024/01/15 02:25:29;;;;;;;39.20;13.77;;;;;;;;;;5009865;28;20069;-74
2024/01/15 02:27:54;;;;;;;34.95;12.20;;;;;;;;;;5009313;28;20080;-74
2024/01/15 02:30:20;;;;;;;39.33;11.65;;;;;;;;;;5027378;28;20048;-74
2024/01/15 02:32:46;;;;;;;52.28;16.00;;;;;;;;;;4991658;28;20044;-74
2024/01/15 02:35:11;;;;;;;37.72;11.95;;;;;;;;;;5023399;28;20025;-74
2024/01/15 02:37:36;;;;;;;36.60;12.70;;;;;;;;;;5019723;28;20046;-74
2024/01/15 02:40:02;;;;;;;37.80;13.90;;;;;;;;;;5007396;28;20037;-74
2024/01/15 02:42:27;;;;;;;36.25;11.07;;;;;;;;;;5007569;28;20042;-74
2024/01/15 02:44:52;;;;;;;38.35;11.90;;;;;;;;;;5000418;28;20128;-74
2024/01/15 02:47:18;;;;;;;27.80;10.88;;;;;;;;;;5010057;28;20040;-73
2024/01/15 02:49:43;;;;;;;31.23;11.85;;;;;;;;;;5027099;28;20042;-74
2024/01/15 02:52:08;;;;;;;40.42;13.25;;;;;;;;;;5009861;28;20498;-74
2024/01/15 02:54:34;;;;;;;34.47;12.57;;;;;;;;;;5031272;28;20447;-74
2024/01/15 02:56:59;;;;;;;31.55;12.32;;;;;;;;;;5034489;28;20093;-74
2024/01/15 02:59:24;;;;;;;31.17;12.00;;;;;;;;;;5017004;28;20025;-74
2024/01/15 03:01:50;;;;;;;37.30;12.70;;;;;;;;;;5016391;28;20064;-73
2024/01/15 03:04:15;;;;;;;38.20;13.35;;;;;;;;;;5033476;28;20060;-74
2024/01/15 03:06:41;;;;;;;38.70;13.75;;;;;;;;;;5016795;28;20067;-73
2024/01/15 03:09:06;;;;;;;32.20;11.70;;;;;;;;;;5016954;28;20584;-73
2024/01/15 03:11:39;;;;;;;34.35;12.70;;;;;;;;;;5038793;28;20088;-73
2024/01/15 03:14:04;;;;;;;27.77;11.10;;;;;;;;;;5026663;28;20045;-74
2024/01/15 03:16:29;;;;;;;34.55;12.43;;;;;;;;;;5042051;28;20576;-74
2024/01/15 03:18:55;;;;;;;25.98;10.57;;;;;;;;;;5035993;28;20494;-74
2024/01/15 03:21:20;;;;;;;34.28;12.07;;;;;;;;;;5024628;28;20061;-74
2024/01/15 03:23:46;;;;;;;27.48;10.20;;;;;;;;;;4996495;28;20028;-74
2024/01/15 03:26:11;;;;;;;26.65;9.80;;;;;;;;;;4997519;28;20058;-74
2024/01/15 03:28:36;;;;;;;26.75;10.30;;;;;;;;;;5014115;28;20408;-74
2024/01/15 03:31:02;;;;;;;26.13;10.27;;;;;;;;;;4996384;28;20132;-74
2024/01/15 03:33:27;;;;;;;22.15;8.63;;;;;;;;;;5017245;28;20034;-74
2024/01/15 03:35:53;;;;;;;21.08;9.27;;;;;;;;;;5053910;28;20028;-74
2024/01/15 03:38:18;;;;;;;34.45;12.32;;;;;;;;;;5041201;28;20025;-74
2024/01/15 03:40:43;;;;;;;30.15;10.23;;;;;;;;;;5033382;28;20038;-74
2024/01/15 03:43:09;;;;;;;26.73;9.05;;;;;;;;;;5034118;28;20065;-74
2024/01/15 03:45:34;;;;;;;30.83;12.00;;;;;;;;;;5015769;28;20041;-74
2024/01/15 03:47:59;;;;;;;29.13;11.07;;;;;;;;;;5033950;28;20041;-74
2024/01/15 03:50:25;;;;;;;27.55;10.45;;;;;;;;;;5017111;28;20029;-74
2024/01/15 03:52:50;;;;;;;37.00;13.85;;;;;;;;;;5033438;28;20104;-74
2024/01/15 03:55:15;;;;;;;34.55;11.82;;;;;;;;;;5016020;28;20041;-74
2024/01/15 03:57:41;;;;;;;36.47;13.57;;;;;;;;;;5034128;28;20040;-74
2024/01/15 04:00:07;;;;;;;36.45;12.27;;;;;;;;;;5015620;28;20040;-74
2024/01/15 04:02:33;;;;;;;30.58;11.85;;;;;;;;;;5034501;28;20130;-74
2024/01/15 04:04:58;;;;;;;25.98;10.02;;;;;;;;;;5034169;28;20103;-74
2024/01/15 04:07:23;;;;;;;32.38;11.63;;;;;;;;;;5029898;28;20057;-74
2024/01/15 04:09:49;;;;;;;38.05;12.75;;;;;;;;;;5030443;28;20045;-74
2024/01/15 04:12:14;;;;;;;32.85;12.50;;;;;;;;;;5012654;28;20034;-75
2024/01/15 04:14:39;;;;;;;25.08;9.68;;;;;;;;;;5044294;28;20029;-74
2024/01/15 04:17:05;;;;;;;35.75;12.25;;;;;;;;;;5066863;28;20025;-73
2024/01/15 04:19:30;;;;;;;27.08;10.13;;;;;;;;;;5049591;28;20033;-74
2024/01/15 04:21:56;;;;;;;45.67;15.15;;;;;;;;;;5052663;28;20093;-74
2024/01/15 04:24:21;;;;;;;41.75;15.50;;;;;;;;;;5047892;28;20037;-74
2024/01/15 04:26:47;;;;;;;39.25;13.30;;;;;;;;;;5028610;28;20041;-74
2024/01/15 04:29:12;;;;;;;38.88;15.25;;;;;;;;;;5012360;28;20033;-74
2024/01/15 04:31:38;;;;;;;58.42;15.90;;;;;;;;;;5030541;28;20703;-73
2024/01/15 04:34:03;;;;;;;33.88;11.70;;;;;;;;;;5011646;28;20055;-73
2024/01/15 04:36:28;;;;;;;42.63;15.25;;;;;;;;;;5027015;28;20114;-73
2024/01/15 04:38:54;;;;;;;41.22;13.25;;;;;;;;;;5018513;28;20037;-73
2024/01/15 04:41:19;;;;;;;36.83;12.63;;;;;;;;;;5014528;28;20430;-74
2024/01/15 04:43:44;;;;;;;32.88;12.05;;;;;;;;;;5030311;28;20340;-73
2024/01/15 04:46:10;;;;;;;44.33;13.68;;;;;;;;;;5029375;28;20034;-74
2024/01/15 04:48:36;;;;;;;35.47;13.75;;;;;;;;;;5029595;28;20033;-75
2024/01/15 04:51:04;;;;;;;33.55;11.23;;;;;;;;;;5029966;28;20044;-74
2024/01/15 04:53:30;;;;;;;38.10;12.82;;;;;;;;;;5030275;28;20104;-74
2024/01/15 04:55:55;;;;;;;37.03;12.93;;;;;;;;;;5012020;28;20637;-75
2024/01/15 04:58:20;;;;;;;42.22;13.90;;;;;;;;;;5030146;28;20025;-74
2024/01/15 05:00:46;;;;;;;32.63;12.20;;;;;;;;;;5011453;28;20034;-74
2024/01/15 05:03:11;;;;;;;32.20;12.05;;;;;;;;;;5029207;28;20053;-74
2024/01/15 05:05:36;;;;;;;32.33;10.95;;;;;;;;;;5030253;28;20021;-75
2024/01/15 05:08:02;;;;;;;38.15;14.10;;;;;;;;;;5011850;28;20461;-75
2024/01/15 05:10:28;;;;;;;35.10;13.75;;;;;;;;;;5011566;28;20040;-75
2024/01/15 05:12:53;;;;;;;39.88;13.93;;;;;;;;;;5028837;28;20033;-74
2024/01/15 05:15:18;;;;;;;43.28;13.80;;;;;;;;;;5011492;28;20065;-75
2024/01/15 05:17:44;;;;;;;32.13;11.68;;;;;;;;;;5029330;28;20593;-74
2024/01/15 05:20:10;;;;;;;32.75;11.98;;;;;;;;;;5029278;28;20021;-75
2024/01/15 05:22:35;;;;;;;37.72;12.40;;;;;;;;;;5010262;28;20026;-75
2024/01/15 05:25:00;;;;;;;31.42;11.80;;;;;;;;;;5010250;28;20030;-75
2024/01/15 05:27:26;;;;;;;24.15;9.90;;;;;;;;;;5011787;28;20038;-74
2024/01/15 05:29:51;;;;;;;30.17;12.00;;;;;;;;;;4999387;28;20024;-75
2024/01/15 05:32:17;;;;;;;27.73;11.25;;;;;;;;;;4997010;28;20856;-75
2024/01/15 05:34:42;;;;;;;32.70;12.98;;;;;;;;;;5030377;28;20081;-75
2024/01/15 05:37:07;;;;;;;21.20;8.52;;;;;;;;;;5007353;28;20173;-74
2024/01/15 05:39:33;;;;;;;20.08;8.43;;;;;;;;;;5013266;28;20044;-75
2024/01/15 05:41:59;;;;;;;23.20;8.77;;;;;;;;;;5017139;28;20038;-75
2024/01/15 05:44:25;;;;;;;28.77;11.27;;;;;;;;;;4997251;28;20018;-75
2024/01/15 05:46:50;;;;;;;25.90;11.00;;;;;;;;;;5010617;28;20045;-75
2024/01/15 05:49:15;;;;;;;24.10;9.32;;;;;;;;;;5010962;28;20507;-75
2024/01/15 05:51:41;;;;;;;14.25;5.93;;;;;;;;;;5028704;28;20557;-74
2024/01/15 05:54:06;;;;;;;17.42;7.35;;;;;;;;;;5010538;28;20041;-74
2024/01/15 05:56:31;;;;;;;27.23;9.43;;;;;;;;;;5029006;28;20052;-75
2024/01/15 05:58:57;;;;;;;23.70;8.95;;;;;;;;;;5010373;28;20435;-75
2024/01/15 06:01:22;;;;;;;18.98;7.97;;;;;;;;;;5011030;28;20041;-75
2024/01/15 06:03:47;;;;;;;25.40;9.93;;;;;;;;;;5027931;28;20049;-75
2024/01/15 06:06:13;;;;;;;25.95;9.52;;;;;;;;;;5029223;28;20107;-75
2024/01/15 06:08:39;;;;;;;14.65;6.93;;;;;;;;;;5011034;28;20043;-74
2024/01/15 06:11:04;;;;;;;19.95;7.63;;;;;;;;;;5010948;28;20120;-75
2024/01/15 06:13:29;;;;;;;16.38;6.75;;;;;;;;;;5010161;28;20648;-74
2024/01/15 06:15:55;;;;;;;17.83;6.35;;;;;;;;;;5009894;28;20034;-75
2024/01/15 06:18:20;;;;;;;18.92;7.43;;;;;;;;;;5028271;28;20048;-74
2024/01/15 06:20:45;;;;;;;24.13;6.38;;;;;;;;;;5003494;28;20144;-75
2024/01/15 06:23:11;;;;;;;11.85;4.82;;;;;;;;;;5028555;28;20067;-74
2024/01/15 06:25:36;;;;;;;11.75;4.65;;;;;;;;;;5017015;28;20037;-75
2024/01/15 06:28:02;;;;;;;9.82;4.55;;;;;;;;;;5011394;28;20041;-75
2024/01/15 06:30:27;;;;;;;13.35;4.50;;;;;;;;;;5026622;28;20119;-74
2024/01/15 06:32:53;;;;;;;13.70;5.20;;;;;;;;;;4999297;28;20030;-74
2024/01/15 06:35:18;;;;;;;12.65;5.10;;;;;;;;;;4991218;28;20025;-74
2024/01/15 06:37:43;;;;;;;10.15;3.72;;;;;;;;;;4998711;28;20797;-74
2024/01/15 06:40:09;;;;;;;7.95;3.92;;;;;;;;;;5028616;28;20045;-75
2024/01/15 06:42:35;;;;;;;9.32;3.75;;;;;;;;;;5028946;28;20069;-74
2024/01/15 06:45:00;;;;;;;6.97;3.67;;;;;;;;;;5038223;28;20454;-75
2024/01/15 06:47:26;;;;;;;10.90;3.38;;;;;;;;;;5032380;28;20029;-74
2024/01/15 06:49:52;;;;;;;12.48;3.33;;;;;;;;;;5056965;28;20033;-74
2024/01/15 06:52:17;;;;;;;6.10;2.80;;;;;;;;;;5055998;28;20037;-74
2024/01/15 06:54:43;;;;;;;9.75;3.05;;;;;;;;;;5021305;28;20177;-75
2024/01/15 06:57:08;;;;;;;9.60;3.33;;;;;;;;;;5024735;28;20507;-74
2024/01/15 06:59:35;;;;;;;6.82;3.33;;;;;;;;;;5024623;28;20026;-76
2024/01/15 07:02:01;;;;;;;16.30;3.53;;;;;;;;;;5014591;28;20057;-75
2024/01/15 07:04:26;;;;;;;10.45;3.22;;;;;;;;;;5020082;28;20055;-76
2024/01/15 07:06:51;;;;;;;13.65;2.75;;;;;;;;;;5008289;28;20057;-75
2024/01/15 07:09:17;;;;;;;13.93;3.17;;;;;;;;;;4990287;28;20918;-76
2024/01/15 07:11:48;;;;;;;13.05;3.05;;;;;;;;;;5006548;28;20030;-76
2024/01/15 07:14:14;;;;;;;9.18;3.50;;;;;;;;;;5024571;28;20200;-76
2024/01/15 07:16:39;;;;;;;7.03;2.47;;;;;;;;;;5030109;28;20536;-75
2024/01/15 07:19:05;;;;;;;10.60;3.30;;;;;;;;;;5009429;28;20044;-76
2024/01/15 07:21:30;;;;;;;8.70;2.40;;;;;;;;;;5026249;28;20079;-76
2024/01/15 07:23:55;;;;;;;6.70;2.45;;;;;;;;;;5027577;28;20517;-76
2024/01/15 07:26:21;;;;;;;6.07;2.55;;;;;;;;;;5010961;28;20052;-76
2024/01/15 07:28:46;;;;;;;12.18;3.70;;;;;;;;;;5009868;28;20047;-76
2024/01/15 07:31:12;;;;;;;10.13;3.10;;;;;;;;;;5009761;28;20068;-77
2024/01/15 07:33:37;;;;;;;12.32;2.97;;;;;;;;;;5008837;28;20137;-76
2024/01/15 07:36:03;;;;;;;9.77;2.42;;;;;;;;;;5005510;28;20060;-76
2024/01/15 07:38:28;;;;;;;5.63;2.30;;;;;;;;;;5021771;28;20044;-76
2024/01/15 07:40:54;;;;;;;4.68;2.05;;;;;;;;;;5011203;28;20037;-76
2024/01/15 07:43:23;;;;;;;8.52;2.70;;;;;;;;;;5018483;28;20064;-75
2024/01/15 07:45:49;;;;;;;10.05;2.40;;;;;;;;;;5022186;28;20046;-76
2024/01/15 07:48:15;;;;;;;7.03;2.55;;;;;;;;;;5015691;28;20049;-76
2024/01/15 07:50:40;;;;;;;5.32;2.40;;;;;;;;;;5032974;28;20037;-75
2024/01/15 07:53:06;;;;;;;6.53;2.42;;;;;;;;;;5028641;28;20053;-75
2024/01/15 07:55:31;;;;;;;3.75;1.80;;;;;;;;;;5045330;28;20064;-76
2024/01/15 07:57:59;;;;;;;8.73;2.95;;;;;;;;;;5029684;28;20121;-76
2024/01/15 08:00:25;;;;;;;8.45;2.28;;;;;;;;;;5037666;28;20045;-76
2024/01/15 08:02:51;;;;;;;11.13;3.10;;;;;;;;;;5035505;28;20053;-76
2024/01/15 08:05:16;;;;;;;9.52;2.90;;;;;;;;;;5014719;28;20018;-76
2024/01/15 08:07:41;;;;;;;9.65;2.78;;;;;;;;;;5002363;28;20049;-76
2024/01/15 08:10:07;;;;;;;5.03;1.90;;;;;;;;;;5008311;28;20064;-76
2024/01/15 08:12:33;;;;;;;5.75;2.70;;;;;;;;;;5009119;28;20081;-76
2024/01/15 08:14:58;;;;;;;15.30;2.35;;;;;;;;;;4990588;28;20033;-76
2024/01/15 08:17:27;;;;;;;8.68;2.75;;;;;;;;;;4991970;28;20029;-76
2024/01/15 08:19:53;;;;;;;5.45;2.53;;;;;;;;;;5008979;28;20852;-76
2024/01/15 08:22:18;;;;;;;6.97;3.20;;;;;;;;;;5008136;28;20129;-76
2024/01/15 08:24:44;;;;;;;9.80;3.00;;;;;;;;;;5007347;28;20037;-76
2024/01/15 08:27:09;;;;;;;5.25;1.88;;;;;;;;;;5007817;28;20061;-76
2024/01/15 08:29:35;;;;;;;9.43;3.67;;;;;;;;;;5010808;28;20061;-76
2024/01/15 08:32:00;;;;;;;4.68;1.88;;;;;;;;;;5008522;28;20049;-76
2024/01/15 08:34:26;;;;;;;5.55;1.92;;;;;;;;;;4982629;28;20045;-76
2024/01/15 08:36:51;;;;;;;4.55;1.98;;;;;;;;;;5002395;28;20103;-76
2024/01/15 08:39:18;;;;;;;5.95;2.88;;;;;;;;;;5007947;28;20048;-76
2024/01/15 08:41:43;;;;;;;8.63;2.03;;;;;;;;;;4994271;28;20514;-76
2024/01/15 08:44:08;;;;;;;3.00;1.95;;;;;;;;;;5010191;28;20052;-76
2024/01/15 08:46:34;;;;;;;4.18;1.98;;;;;;;;;;4989387;28;20734;-76
2024/01/15 08:48:59;;;;;;;4.38;1.80;;;;;;;;;;4972780;28;20571;-76
2024/01/15 08:51:25;;;;;;;4.13;1.70;;;;;;;;;;4971563;28;20042;-76
2024/01/15 08:53:50;;;;;;;9.55;2.58;;;;;;;;;;4994787;28;20436;-76
2024/01/15 08:56:15;;;;;;;4.95;1.77;;;;;;;;;;4972181;28;20073;-76
2024/01/15 08:58:41;;;;;;;5.45;2.30;;;;;;;;;;4988973;28;20048;-76
2024/01/15 09:01:06;;;;;;;5.05;2.50;;;;;;;;;;4974123;28;20038;-76
2024/01/15 09:03:33;;;;;;;5.97;2.33;;;;;;;;;;5019829;28;20065;-76
2024/01/15 09:05:59;;;;;;;2.08;1.52;;;;;;;;;;5019951;28;20101;-76
2024/01/15 09:08:24;;;;;;;7.10;2.50;;;;;;;;;;5016926;28;20168;-78
2024/01/15 09:10:50;;;;;;;4.97;2.33;;;;;;;;;;5029810;28;20120;-76
2024/01/15 09:13:16;;;;;;;6.15;2.42;;;;;;;;;;5024195;28;20101;-76
2024/01/15 09:15:42;;;;;;;4.63;2.33;;;;;;;;;;5027176;28;20037;-76
2024/01/15 09:18:08;;;;;;;6.15;2.60;;;;;;;;;;5028637;28;20088;-76
2024/01/15 09:20:33;;;;;;;8.40;3.08;;;;;;;;;;5037570;28;20022;-76
2024/01/15 09:22:58;;;;;;;4.25;1.52;;;;;;;;;;5025654;28;20080;-76
2024/01/15 09:25:24;;;;;;;6.00;2.47;;;;;;;;;;5014419;28;20038;-76
2024/01/15 09:27:49;;;;;;;8.00;2.80;;;;;;;;;;5013300;28;20046;-76
2024/01/15 09:30:15;;;;;;;3.85;2.15;;;;;;;;;;5009936;28;20065;-76
2024/01/15 09:32:40;;;;;;;5.03;2.40;;;;;;;;;;5008831;28;20453;-75
2024/01/15 09:35:06;;;;;;;4.07;2.47;;;;;;;;;;5010031;28;20631;-76
2024/01/15 09:37:31;;;;;;;10.45;2.05;;;;;;;;;;5016663;28;20033;-76
2024/01/15 09:39:57;;;;;;;5.63;2.00;;;;;;;;;;5034098;28;20037;-76
2024/01/15 09:42:24;;;;;;;5.05;2.83;;;;;;;;;;5043034;28;20093;-76
2024/01/15 09:44:51;;;;;;;3.85;1.90;;;;;;;;;;5032239;28;20021;-76
2024/01/15 09:47:18;;;;;;;4.45;2.35;;;;;;;;;;5023067;28;20022;-76
2024/01/15 09:49:43;;;;;;;4.90;2.55;;;;;;;;;;5020888;28;20050;-75
2024/01/15 09:52:11;;;;;;;5.90;2.50;;;;;;;;;;5023913;28;20048;-76
2024/01/15 09:54:38;;;;;;;5.18;2.80;;;;;;;;;;5022668;28;20076;-76
2024/01/15 09:57:04;;;;;;;6.30;2.90;;;;;;;;;;5018003;28;20050;-75
2024/01/15 09:59:31;;;;;;;7.57;2.83;;;;;;;;;;5003774;28;20446;-75
2024/01/15 10:01:58;;;;;;;4.18;2.42;;;;;;;;;;5014458;28;20045;-75
2024/01/15 10:04:24;;;;;;;6.25;2.63;;;;;;;;;;5024147;28;20047;-75
2024/01/15 10:06:51;;;;;;;5.28;2.22;;;;;;;;;;5025530;28;20029;-75
2024/01/15 10:09:17;;;;;;;4.85;1.63;;;;;;;;;;5025570;28;20048;-75
2024/01/15 10:11:44;;;;;;;5.88;2.45;;;;;;;;;;5007516;28;20120;-75
2024/01/15 10:14:12;;;;;;;4.53;2.30;;;;;;;;;;5007557;28;20075;-75
2024/01/15 10:16:41;;;;;;;4.13;1.90;;;;;;;;;;5024770;28;20064;-76
2024/01/15 10:19:08;;;;;;;6.05;1.70;;;;;;;;;;5007152;28;20045;-75
2024/01/15 10:21:36;;;;;;;6.50;2.10;;;;;;;;;;5025784;28;20037;-76
2024/01/15 10:24:03;;;;;;;5.72;2.53;;;;;;;;;;5026278;28;20064;-76
2024/01/15 10:26:29;;;;;;;5.00;2.00;;;;;;;;;;5028864;28;20100;-75
2024/01/15 10:28:54;;;;;;;3.88;1.65;;;;;;;;;;5009769;28;20037;-75
2024/01/15 10:31:21;;;;;;;3.25;1.58;;;;;;;;;;5025215;28;20037;-75
2024/01/15 10:33:47;;;;;;;5.60;2.13;;;;;;;;;;5006824;28;20119;-75
2024/01/15 10:36:13;;;;;;;4.20;1.80;;;;;;;;;;4989981;28;20034;-75
2024/01/15 10:38:38;;;;;;;4.22;2.00;;;;;;;;;;4997996;28;20454;-75
2024/01/15 10:41:04;;;;;;;5.90;1.90;;;;;;;;;;5005383;28;20041;-75
2024/01/15 10:43:30;;;;;;;6.68;2.10;;;;;;;;;;5005141;28;20042;-76
2024/01/15 10:45:55;;;;;;;3.85;1.50;;;;;;;;;;5004870;28;20112;-75
2024/01/15 10:48:20;;;;;;;4.43;1.85;;;;;;;;;;4987096;28;20038;-77
2024/01/15 10:50:47;;;;;;;6.65;2.10;;;;;;;;;;4987212;28;20026;-76
2024/01/15 10:53:14;;;;;;;8.13;1.90;;;;;;;;;;5005178;28;20522;-76
2024/01/15 10:55:41;;;;;;;4.50;2.10;;;;;;;;;;5004754;28;20046;-75
2024/01/15 10:58:07;;;;;;;6.53;1.88;;;;;;;;;;5006818;28;20754;-76
2024/01/15 11:00:34;;;;;;;5.80;1.77;;;;;;;;;;5023943;28;20037;-75
2024/01/15 11:03:03;;;;;;;1.50;0.80;;;;;;;;;;5020853;28;21051;-76
2024/01/15 11:05:28;;;;;;;3.55;1.67;;;;;;;;;;5024838;28;20056;-76
2024/01/15 11:07:59;;;;;;;3.55;1.30;;;;;;;;;;5037749;28;20065;-76
2024/01/15 11:10:41;;;;;;;13.25;1.70;;;;;;;;;;5023980;28;20060;-76
2024/01/15 11:13:22;;;;;;;4.88;1.85;;;;;;;;;;5041275;28;20087;-76
2024/01/15 11:16:02;;;;;;;4.30;1.40;;;;;;;;;;5019295;28;20045;-76
2024/01/15 11:18:35;;;;;;;5.20;1.73;;;;;;;;;;5029035;28;20088;-75
2024/01/15 11:21:15;;;;;;;4.78;1.90;;;;;;;;;;5010447;28;20033;-75
2024/01/15 11:23:48;;;;;;;4.47;2.03;;;;;;;;;;5004816;28;20034;-75
2024/01/15 11:26:41;;;;;;;6.72;1.90;;;;;;;;;;4991502;28;20026;-75
2024/01/15 11:29:28;;;;;;;5.07;2.10;;;;;;;;;;5008788;28;20869;-75
2024/01/15 11:32:07;;;;;;;7.72;3.35;;;;;;;;;;5018238;28;20041;-75
2024/01/15 11:35:09;;;;;;;5.32;1.30;;;;;;;;;;5027929;28;20041;-75
2024/01/15 11:37:55;;;;;;;7.80;2.28;;;;;;;;;;4930899;29;20217;-76
2024/01/15 11:40:22;;;;;;;9.05;2.55;;;;;;;;;;5005567;28;20133;-75
2024/01/15 11:42:49;;;;;;;10.15;3.22;;;;;;;;;;5028481;28;20120;-76
2024/01/15 11:45:21;;;;;;;8.30;2.28;;;;;;;;;;5027994;28;20121;-76
2024/01/15 11:48:08;;;;;;;7.63;2.20;;;;;;;;;;5009061;28;20026;-76
2024/01/15 11:50:34;;;;;;;7.95;2.20;;;;;;;;;;5030075;28;20025;-76
2024/01/15 11:53:01;;;;;;;5.45;1.98;;;;;;;;;;5037572;28;20128;-76
2024/01/15 11:55:35;;;;;;;4.63;2.03;;;;;;;;;;5015627;28;20030;-76
2024/01/15 11:58:01;;;;;;;10.98;1.77;;;;;;;;;;5027900;28;20033;-76
2024/01/15 12:00:28;;;;;;;7.85;2.47;;;;;;;;;;5027547;28;20580;-76
2024/01/15 12:02:54;;;;;;;4.80;1.42;;;;;;;;;;5027924;28;20061;-76
2024/01/15 12:05:20;;;;;;;1.05;0.82;;;;;;;;;;5028081;28;20028;-76
2024/01/15 12:07:48;;;;;;;8.00;1.80;;;;;;;;;;5023533;28;20028;-76
2024/01/15 12:10:15;;;;;;;2.65;1.00;;;;;;;;;;4990476;28;20038;-76
2024/01/15 12:13:04;;;;;;;3.17;1.10;;;;;;;;;;4990438;28;20044;-76
2024/01/15 12:15:30;;;;;;;3.08;0.90;;;;;;;;;;5018178;28;20040;-76
2024/01/15 12:17:57;;;;;;;3.08;0.80;;;;;;;;;;5009991;28;20057;-76
2024/01/15 12:20:23;;;;;;;2.70;1.10;;;;;;;;;;5028104;28;20021;-76
2024/01/15 12:22:49;;;;;;;6.68;1.35;;;;;;;;;;5001630;28;20034;-76
2024/01/15 12:25:15;;;;;;;1.30;0.68;;;;;;;;;;4990213;28;20045;-75
2024/01/15 12:27:40;;;;;;;3.38;0.90;;;;;;;;;;5017156;28;20064;-75
2024/01/15 12:30:07;;;;;;;6.55;1.67;;;;;;;;;;5018566;28;20589;-72
2024/01/15 12:32:32;;;;;;;3.40;1.25;;;;;;;;;;5008525;28;20072;-77
2024/01/15 12:34:58;;;;;;;4.85;1.98;;;;;;;;;;5018241;28;20048;-77
2024/01/15 12:37:25;;;;;;;8.07;2.10;;;;;;;;;;4999937;28;20427;-76
2024/01/15 12:39:54;;;;;;;4.72;1.35;;;;;;;;;;5003498;28;20041;-75
2024/01/15 12:42:21;;;;;;;6.72;2.42;;;;;;;;;;5029618;28;20045;-77
2024/01/15 12:44:47;;;;;;;6.68;1.75;;;;;;;;;;5019537;28;20094;-77
2024/01/15 12:47:14;;;;;;;6.32;2.00;;;;;;;;;;5033032;28;20022;-78
2024/01/15 12:49:39;;;;;;;2.47;1.30;;;;;;;;;;5015152;28;20034;-78
2024/01/15 12:52:08;;;;;;;6.78;1.83;;;;;;;;;;5035560;28;20069;-77
2024/01/15 12:54:34;;;;;;;2.38;1.15;;;;;;;;;;5039719;28;20045;-75
2024/01/15 12:56:59;;;;;;;8.43;1.45;;;;;;;;;;5043530;28;20041;-77
2024/01/15 12:59:25;;;;;;;6.80;2.20;;;;;;;;;;5038398;28;20017;-77
2024/01/15 13:01:50;;;;;;;2.28;1.58;;;;;;;;;;5008979;28;20064;-77
2024/01/15 13:04:23;;;;;;;4.97;2.13;;;;;;;;;;5023593;28;20037;-78
2024/01/15 13:06:49;;;;;;;5.68;1.60;;;;;;;;;;5011050;28;20037;-78
2024/01/15 13:09:15;;;;;;;4.60;1.77;;;;;;;;;;5024094;28;20049;-78
2024/01/15 13:11:41;;;;;;;13.32;2.42;;;;;;;;;;5033022;28;20043;-77
2024/01/15 13:14:06;;;;;;;5.13;1.08;;;;;;;;;;5029449;28;20029;-78
2024/01/15 13:16:34;;;;;;;2.60;1.08;;;;;;;;;;5028063;28;20033;-78
2024/01/15 13:19:00;;;;;;;7.60;1.77;;;;;;;;;;5031607;28;20084;-79
2024/01/15 13:21:25;;;;;;;3.20;1.58;;;;;;;;;;5049047;28;20037;-81
2024/01/15 13:23:51;;;;;;;6.20;1.40;;;;;;;;;;5029029;28;20064;-80
2024/01/15 13:26:20;;;;;;;3.30;1.20;;;;;;;;;;5029874;28;20041;-79
2024/01/15 13:28:46;;;;;;;1.55;0.93;;;;;;;;;;5023948;28;20033;-81
2024/01/15 13:31:11;;;;;;;4.70;1.30;;;;;;;;;;5009343;28;20048;-79
2024/01/15 13:33:37;;;;;;;4.15;1.05;;;;;;;;;;5016642;28;20137;-76
2024/01/15 13:36:03;;;;;;;2.70;1.55;;;;;;;;;;5005338;28;20037;-75
2024/01/15 13:38:31;;;;;;;1.23;0.75;;;;;;;;;;5020412;28;20049;-74
2024/01/15 13:40:57;;;;;;;5.72;2.75;;;;;;;;;;5014633;28;20065;-75
2024/01/15 13:43:22;;;;;;;7.15;1.30;;;;;;;;;;4997279;28;20037;-75
2024/01/15 13:45:47;;;;;;;3.78;1.40;;;;;;;;;;5007780;28;20049;-74
2024/01/15 13:48:13;;;;;;;3.25;1.23;;;;;;;;;;5025169;28;20044;-75
2024/01/15 13:50:38;;;;;;;5.40;1.55;;;;;;;;;;5025288;28;20392;-75
2024/01/15 13:53:04;;;;;;;1.60;0.70;;;;;;;;;;5018237;28;20057;-74
2024/01/15 13:55:30;;;;;;;8.48;1.60;;;;;;;;;;5018468;28;20041;-74
2024/01/15 13:57:55;;;;;;;10.07;1.60;;;;;;;;;;5024833;28;20048;-75
2024/01/15 14:00:21;;;;;;;6.90;1.15;;;;;;;;;;5007374;28;20037;-75
2024/01/15 14:02:47;;;;;;;2.47;0.80;;;;;;;;;;5025087;28;20052;-75
2024/01/15 14:05:12;;;;;;;3.03;0.82;;;;;;;;;;5009303;28;20030;-75
2024/01/15 14:07:42;;;;;;;4.10;1.30;;;;;;;;;;5028873;28;20041;-75
2024/01/15 14:10:09;;;;;;;4.20;1.67;;;;;;;;;;5000491;28;20050;-75
2024/01/15 14:12:35;;;;;;;6.80;2.50;;;;;;;;;;4994137;28;20048;-75
2024/01/15 14:15:02;;;;;;;3.08;1.50;;;;;;;;;;4988440;28;20056;-75
2024/01/15 14:17:28;;;;;;;10.48;2.70;;;;;;;;;;5006084;28;20022;-75
2024/01/15 14:19:53;;;;;;;4.93;1.80;;;;;;;;;;4987811;28;20060;-74
2024/01/15 14:22:18;;;;;;;9.32;3.25;;;;;;;;;;4983660;28;20038;-75
2024/01/15 14:24:44;;;;;;;7.93;3.35;;;;;;;;;;5014642;28;20532;-74
2024/01/15 14:27:09;;;;;;;6.07;2.17;;;;;;;;;;5004619;28;20040;-74